sensor_id;sensor_type;location;lat;lon;timestamp;P1;durP1;ratioP1;P2;durP2;ratioP2
34499;SDS011;20745;50.882;6.962;2023-02-28T00:00:29;11.73;;;3.00;;
34499;SDS011;20745;50.882;6.962;2023-02-28T00:02:56;13.30;;;3.60;;
34499;SDS011;20745;50.882;6.962;2023-02-28T00:05:23;15.73;;;3.10;;
34499;SDS011;20745;50.882;6.962;2023-02-28T00:07:50;11.48;;;3.15;;
34499;SDS011;20745;50.882;6.962;2023-02-28T00:10:18;12.40;;;3.20;;
34499;SDS011;20745;50.882;6.962;2023-02-28T00:12:47;12.88;;;3.20;;
34499;SDS011;20745;50.882;6.962;2023-02-28T00:15:15;12.83;;;2.93;;
34499;SDS011;20745;50.882;6.962;2023-02-28T00:17:42;11.57;;;3.13;;
34499;SDS011;20745;50.882;6.962;2023-02-28T00:20:09;12.02;;;3.28;;
34499;SDS011;20745;50.882;6.962;2023-02-28T00:22:38;10.73;;;2.95;;
34499;SDS011;20745;50.882;6.962;2023-02-28T00:25:06;9.70;;;2.73;;
34499;SDS011;20745;50.882;6.962;2023-02-28T00:27:35;16.08;;;3.20;;
34499;SDS011;20745;50.882;6.962;2023-02-28T00:30:03;12.13;;;3.28;;
34499;SDS011;20745;50.882;6.962;2023-02-28T00:32:30;10.63;;;2.83;;
34499;SDS011;20745;50.882;6.962;2023-02-28T00:34:57;11.70;;;2.58;;
34499;SDS011;20745;50.882;6.962;2023-02-28T00:37:24;11.68;;;2.85;;
34499;SDS011;20745;50.882;6.962;2023-02-28T00:39:50;12.23;;;2.53;;
34499;SDS011;20745;50.882;6.962;2023-02-28T00:42:17;9.75;;;2.75;;
34499;SDS011;20745;50.882;6.962;2023-02-28T00:44:43;11.77;;;2.78;;
34499;SDS011;20745;50.882;6.962;2023-02-28T00:47:10;10.98;;;2.65;;
34499;SDS011;20745;50.882;6.962;2023-02-28T00:49:37;10.27;;;2.78;;
34499;SDS011;20745;50.882;6.962;2023-02-28T00:52:03;11.98;;;2.90;;
34499;SDS011;20745;50.882;6.962;2023-02-28T00:54:30;10.55;;;3.22;;
34499;SDS011;20745;50.882;6.962;2023-02-28T00:56:56;9.18;;;2.75;;
34499;SDS011;20745;50.882;6.962;2023-02-28T00:59:23;9.18;;;2.80;;
34499;SDS011;20745;50.882;6.962;2023-02-28T01:01:49;9.20;;;2.97;;
34499;SDS011;20745;50.882;6.962;2023-02-28T01:04:16;8.88;;;2.60;;
34499;SDS011;20745;50.882;6.962;2023-02-28T01:06:45;9.98;;;2.83;;
34499;SDS011;20745;50.882;6.962;2023-02-28T01:09:12;10.05;;;2.55;;
34499;SDS011;20745;50.882;6.962;2023-02-28T01:11:38;13.40;;;3.08;;
34499;SDS011;20745;50.882;6.962;2023-02-28T01:14:08;10.95;;;2.70;;
34499;SDS011;20745;50.882;6.962;2023-02-28T01:16:34;13.40;;;2.70;;
34499;SDS011;20745;50.882;6.962;2023-02-28T01:19:01;10.48;;;2.67;;
34499;SDS011;20745;50.882;6.962;2023-02-28T01:21:27;11.00;;;2.75;;
34499;SDS011;20745;50.882;6.962;2023-02-28T01:23:56;6.67;;;2.27;;
34499;SDS011;20745;50.882;6.962;2023-02-28T01:26:23;12.68;;;2.92;;
34499;SDS011;20745;50.882;6.962;2023-02-28T01:28:51;11.45;;;2.83;;
34499;SDS011;20745;50.882;6.962;2023-02-28T01:31:19;9.63;;;2.53;;
34499;SDS011;20745;50.882;6.962;2023-02-28T01:33:47;9.60;;;2.65;;
34499;SDS011;20745;50.882;6.962;2023-02-28T01:36:15;9.43;;;2.60;;
34499;SDS011;20745;50.882;6.962;2023-02-28T01:38:46;11.98;;;2.63;;
34499;SDS011;20745;50.882;6.962;2023-02-28T01:41:18;13.38;;;2.95;;
34499;SDS011;20745;50.882;6.962;2023-02-28T01:46:13;7.65;;;2.42;;
34499;SDS011;20745;50.882;6.962;2023-02-28T01:48:48;10.77;;;2.97;;
34499;SDS011;20745;50.882;6.962;2023-02-28T01:51:44;13.65;;;2.78;;
34499;SDS011;20745;50.882;6.962;2023-02-28T01:54:21;8.52;;;2.47;;
34499;SDS011;20745;50.882;6.962;2023-02-28T01:56:53;9.45;;;2.50;;
34499;SDS011;20745;50.882;6.962;2023-02-28T01:59:37;10.02;;;2.85;;
34499;SDS011;20745;50.882;6.962;2023-02-28T02:02:15;11.27;;;2.90;;
34499;SDS011;20745;50.882;6.962;2023-02-28T02:05:30;11.13;;;3.72;;
34499;SDS011;20745;50.882;6.962;2023-02-28T02:07:36;14.23;;;3.10;;
34499;SDS011;20745;50.882;6.962;2023-02-28T02:10:15;13.20;;;3.58;;
34499;SDS011;20745;50.882;6.962;2023-02-28T02:15:42;10.23;;;2.83;;
34499;SDS011;20745;50.882;6.962;2023-02-28T02:18:42;11.40;;;2.60;;
34499;SDS011;20745;50.882;6.962;2023-02-28T02:35:52;9.57;;;2.47;;
34499;SDS011;20745;50.882;6.962;2023-02-28T02:41:08;10.23;;;2.63;;
34499;SDS011;20745;50.882;6.962;2023-02-28T02:46:29;10.50;;;3.00;;
34499;SDS011;20745;50.882;6.962;2023-02-28T02:49:00;11.80;;;3.00;;
34499;SDS011;20745;50.882;6.962;2023-02-28T02:51:32;9.90;;;2.72;;
34499;SDS011;20745;50.882;6.962;2023-02-28T02:54:02;9.48;;;2.30;;
34499;SDS011;20745;50.882;6.962;2023-02-28T02:57:00;8.75;;;2.53;;
34499;SDS011;20745;50.882;6.962;2023-02-28T02:59:31;11.25;;;2.50;;
34499;SDS011;20745;50.882;6.962;2023-02-28T03:02:01;9.50;;;2.80;;
34499;SDS011;20745;50.882;6.962;2023-02-28T03:04:31;11.40;;;2.90;;
34499;SDS011;20745;50.882;6.962;2023-02-28T03:07:01;7.88;;;2.47;;
34499;SDS011;20745;50.882;6.962;2023-02-28T03:09:27;9.60;;;2.72;;
34499;SDS011;20745;50.882;6.962;2023-02-28T03:11:54;9.18;;;2.55;;
34499;SDS011;20745;50.882;6.962;2023-02-28T03:14:43;5.22;;;1.83;;
34499;SDS011;20745;50.882;6.962;2023-02-28T03:23:19;8.07;;;2.63;;
34499;SDS011;20745;50.882;6.962;2023-02-28T03:28:15;6.00;;;2.03;;
34499;SDS011;20745;50.882;6.962;2023-02-28T03:31:11;9.23;;;2.78;;
34499;SDS011;20745;50.882;6.962;2023-02-28T03:33:50;8.45;;;2.50;;
34499;SDS011;20745;50.882;6.962;2023-02-28T03:36:26;9.25;;;3.08;;
34499;SDS011;20745;50.882;6.962;2023-02-28T03:39:04;13.30;;;2.65;;
34499;SDS011;20745;50.882;6.962;2023-02-28T03:41:37;9.55;;;2.50;;
34499;SDS011;20745;50.882;6.962;2023-02-28T03:44:10;10.90;;;2.47;;
34499;SDS011;20745;50.882;6.962;2023-02-28T03:46:44;10.75;;;2.88;;
34499;SDS011;20745;50.882;6.962;2023-02-28T03:49:30;9.15;;;2.47;;
34499;SDS011;20745;50.882;6.962;2023-02-28T03:52:01;7.57;;;2.50;;
34499;SDS011;20745;50.882;6.962;2023-02-28T03:54:32;11.80;;;2.50;;
34499;SDS011;20745;50.882;6.962;2023-02-28T03:57:06;12.45;;;3.53;;
34499;SDS011;20745;50.882;6.962;2023-02-28T03:59:45;11.27;;;2.80;;
34499;SDS011;20745;50.882;6.962;2023-02-28T04:02:18;9.95;;;3.03;;
34499;SDS011;20745;50.882;6.962;2023-02-28T04:04:45;14.68;;;2.75;;
34499;SDS011;20745;50.882;6.962;2023-02-28T04:07:15;11.40;;;3.13;;
34499;SDS011;20745;50.882;6.962;2023-02-28T04:09:42;8.82;;;2.72;;
34499;SDS011;20745;50.882;6.962;2023-02-28T04:12:08;10.93;;;2.55;;
34499;SDS011;20745;50.882;6.962;2023-02-28T04:14:35;12.18;;;3.22;;
34499;SDS011;20745;50.882;6.962;2023-02-28T04:17:01;11.73;;;2.67;;
34499;SDS011;20745;50.882;6.962;2023-02-28T04:19:28;13.48;;;2.75;;
34499;SDS011;20745;50.882;6.962;2023-02-28T04:21:54;7.30;;;2.50;;
34499;SDS011;20745;50.882;6.962;2023-02-28T04:24:22;9.48;;;2.28;;
34499;SDS011;20745;50.882;6.962;2023-02-28T04:29:19;11.38;;;2.55;;
34499;SDS011;20745;50.882;6.962;2023-02-28T04:31:48;8.43;;;2.47;;
34499;SDS011;20745;50.882;6.962;2023-02-28T04:34:16;11.20;;;2.53;;
34499;SDS011;20745;50.882;6.962;2023-02-28T04:36:43;10.70;;;2.60;;
34499;SDS011;20745;50.882;6.962;2023-02-28T04:39:09;10.45;;;2.42;;
34499;SDS011;20745;50.882;6.962;2023-02-28T04:41:36;10.88;;;3.25;;
34499;SDS011;20745;50.882;6.962;2023-02-28T04:44:02;9.35;;;2.92;;
34499;SDS011;20745;50.882;6.962;2023-02-28T04:46:29;9.82;;;3.00;;
34499;SDS011;20745;50.882;6.962;2023-02-28T04:48:56;11.80;;;3.55;;
34499;SDS011;20745;50.882;6.962;2023-02-28T04:51:23;8.43;;;2.50;;
34499;SDS011;20745;50.882;6.962;2023-02-28T04:53:49;8.77;;;2.70;;
34499;SDS011;20745;50.882;6.962;2023-02-28T04:56:17;9.10;;;2.88;;
34499;SDS011;20745;50.882;6.962;2023-02-28T04:58:43;7.88;;;2.30;;
34499;SDS011;20745;50.882;6.962;2023-02-28T05:01:22;10.07;;;2.78;;
34499;SDS011;20745;50.882;6.962;2023-02-28T05:03:54;9.43;;;2.88;;
34499;SDS011;20745;50.882;6.962;2023-02-28T05:06:23;8.27;;;2.40;;
34499;SDS011;20745;50.882;6.962;2023-02-28T05:08:52;9.23;;;2.72;;
34499;SDS011;20745;50.882;6.962;2023-02-28T05:11:20;9.10;;;2.65;;
34499;SDS011;20745;50.882;6.962;2023-02-28T05:13:49;8.35;;;2.70;;
34499;SDS011;20745;50.882;6.962;2023-02-28T05:16:17;11.25;;;2.75;;
34499;SDS011;20745;50.882;6.962;2023-02-28T05:18:44;17.23;;;2.90;;
34499;SDS011;20745;50.882;6.962;2023-02-28T05:23:52;9.93;;;2.47;;
34499;SDS011;20745;50.882;6.962;2023-02-28T05:26:19;12.50;;;2.83;;
34499;SDS011;20745;50.882;6.962;2023-02-28T05:28:46;12.32;;;2.95;;
34499;SDS011;20745;50.882;6.962;2023-02-28T05:31:13;8.95;;;2.70;;
34499;SDS011;20745;50.882;6.962;2023-02-28T05:33:40;8.15;;;2.60;;
34499;SDS011;20745;50.882;6.962;2023-02-28T05:36:06;9.43;;;2.47;;
34499;SDS011;20745;50.882;6.962;2023-02-28T05:38:33;8.63;;;2.58;;
34499;SDS011;20745;50.882;6.962;2023-02-28T05:41:06;10.20;;;2.65;;
34499;SDS011;20745;50.882;6.962;2023-02-28T05:43:36;10.07;;;3.15;;
34499;SDS011;20745;50.882;6.962;2023-02-28T05:46:04;12.23;;;2.88;;
34499;SDS011;20745;50.882;6.962;2023-02-28T05:48:35;8.02;;;2.60;;
34499;SDS011;20745;50.882;6.962;2023-02-28T05:51:03;9.90;;;2.53;;
34499;SDS011;20745;50.882;6.962;2023-02-28T05:53:30;8.93;;;2.88;;
34499;SDS011;20745;50.882;6.962;2023-02-28T05:55:58;10.15;;;2.70;;
34499;SDS011;20745;50.882;6.962;2023-02-28T05:58:25;11.32;;;2.63;;
34499;SDS011;20745;50.882;6.962;2023-02-28T06:00:55;8.00;;;2.70;;
34499;SDS011;20745;50.882;6.962;2023-02-28T06:03:21;8.20;;;2.60;;
34499;SDS011;20745;50.882;6.962;2023-02-28T06:05:48;8.57;;;2.75;;
34499;SDS011;20745;50.882;6.962;2023-02-28T06:08:15;10.02;;;2.60;;
34499;SDS011;20745;50.882;6.962;2023-02-28T06:10:41;11.07;;;3.05;;
34499;SDS011;20745;50.882;6.962;2023-02-28T06:13:08;9.73;;;2.90;;
34499;SDS011;20745;50.882;6.962;2023-02-28T06:15:34;12.23;;;3.03;;
34499;SDS011;20745;50.882;6.962;2023-02-28T06:18:01;9.02;;;2.88;;
34499;SDS011;20745;50.882;6.962;2023-02-28T06:20:28;11.00;;;3.03;;
34499;SDS011;20745;50.882;6.962;2023-02-28T06:22:57;8.15;;;2.80;;
34499;SDS011;20745;50.882;6.962;2023-02-28T06:25:25;10.10;;;3.25;;
34499;SDS011;20745;50.882;6.962;2023-02-28T06:27:53;7.90;;;2.25;;
34499;SDS011;20745;50.882;6.962;2023-02-28T06:30:20;7.72;;;2.47;;
34499;SDS011;20745;50.882;6.962;2023-02-28T06:32:53;9.27;;;2.88;;
34499;SDS011;20745;50.882;6.962;2023-02-28T06:35:20;9.80;;;2.92;;
34499;SDS011;20745;50.882;6.962;2023-02-28T06:37:47;8.88;;;2.88;;
34499;SDS011;20745;50.882;6.962;2023-02-28T06:40:14;8.43;;;2.95;;
34499;SDS011;20745;50.882;6.962;2023-02-28T06:42:41;9.25;;;2.80;;
34499;SDS011;20745;50.882;6.962;2023-02-28T06:45:07;8.40;;;2.92;;
34499;SDS011;20745;50.882;6.962;2023-02-28T06:47:36;8.55;;;2.80;;
34499;SDS011;20745;50.882;6.962;2023-02-28T06:50:04;11.57;;;3.25;;
34499;SDS011;20745;50.882;6.962;2023-02-28T06:52:31;10.63;;;3.03;;
34499;SDS011;20745;50.882;6.962;2023-02-28T06:54:58;10.43;;;2.70;;
34499;SDS011;20745;50.882;6.962;2023-02-28T06:57:31;12.27;;;3.25;;
34499;SDS011;20745;50.882;6.962;2023-02-28T07:00:00;12.85;;;3.08;;
34499;SDS011;20745;50.882;6.962;2023-02-28T07:02:27;18.33;;;2.80;;
34499;SDS011;20745;50.882;6.962;2023-02-28T07:04:54;9.77;;;2.88;;
34499;SDS011;20745;50.882;6.962;2023-02-28T07:07:21;13.98;;;2.95;;
34499;SDS011;20745;50.882;6.962;2023-02-28T07:09:48;11.95;;;2.78;;
34499;SDS011;20745;50.882;6.962;2023-02-28T07:12:15;10.27;;;2.95;;
34499;SDS011;20745;50.882;6.962;2023-02-28T07:14:42;11.68;;;2.60;;
34499;SDS011;20745;50.882;6.962;2023-02-28T07:17:09;9.40;;;2.58;;
34499;SDS011;20745;50.882;6.962;2023-02-28T07:19:38;10.18;;;2.80;;
34499;SDS011;20745;50.882;6.962;2023-02-28T07:22:05;11.75;;;2.72;;
34499;SDS011;20745;50.882;6.962;2023-02-28T07:24:32;9.18;;;2.55;;
34499;SDS011;20745;50.882;6.962;2023-02-28T07:26:59;10.30;;;2.88;;
34499;SDS011;20745;50.882;6.962;2023-02-28T07:29:27;12.45;;;3.38;;
34499;SDS011;20745;50.882;6.962;2023-02-28T07:31:54;11.65;;;3.47;;
34499;SDS011;20745;50.882;6.962;2023-02-28T07:34:21;8.73;;;2.72;;
34499;SDS011;20745;50.882;6.962;2023-02-28T07:36:48;11.38;;;3.17;;
34499;SDS011;20745;50.882;6.962;2023-02-28T07:39:15;9.35;;;2.40;;
34499;SDS011;20745;50.882;6.962;2023-02-28T07:41:41;11.30;;;2.67;;
34499;SDS011;20745;50.882;6.962;2023-02-28T07:44:10;7.90;;;2.60;;
34499;SDS011;20745;50.882;6.962;2023-02-28T07:46:37;11.25;;;2.78;;
34499;SDS011;20745;50.882;6.962;2023-02-28T07:49:04;8.80;;;2.65;;
34499;SDS011;20745;50.882;6.962;2023-02-28T07:51:31;13.07;;;2.65;;
34499;SDS011;20745;50.882;6.962;2023-02-28T07:53:58;10.02;;;2.45;;
34499;SDS011;20745;50.882;6.962;2023-02-28T07:56:24;13.48;;;2.95;;
34499;SDS011;20745;50.882;6.962;2023-02-28T07:58:51;10.32;;;2.58;;
34499;SDS011;20745;50.882;6.962;2023-02-28T08:01:18;5.90;;;2.30;;
34499;SDS011;20745;50.882;6.962;2023-02-28T08:03:45;8.32;;;2.40;;
34499;SDS011;20745;50.882;6.962;2023-02-28T08:06:16;6.93;;;2.10;;
34499;SDS011;20745;50.882;6.962;2023-02-28T08:08:47;7.05;;;2.42;;
34499;SDS011;20745;50.882;6.962;2023-02-28T08:11:14;8.93;;;2.33;;
34499;SDS011;20745;50.882;6.962;2023-02-28T08:13:42;10.07;;;2.35;;
34499;SDS011;20745;50.882;6.962;2023-02-28T08:16:10;6.60;;;2.10;;
34499;SDS011;20745;50.882;6.962;2023-02-28T08:18:41;11.63;;;2.42;;
34499;SDS011;20745;50.882;6.962;2023-02-28T08:21:08;10.45;;;2.40;;
34499;SDS011;20745;50.882;6.962;2023-02-28T08:23:36;8.10;;;2.15;;
34499;SDS011;20745;50.882;6.962;2023-02-28T08:26:03;7.85;;;2.22;;
34499;SDS011;20745;50.882;6.962;2023-02-28T08:28:30;11.32;;;2.00;;
34499;SDS011;20745;50.882;6.962;2023-02-28T08:30:57;5.20;;;2.10;;
34499;SDS011;20745;50.882;6.962;2023-02-28T08:33:24;5.60;;;2.03;;
34499;SDS011;20745;50.882;6.962;2023-02-28T08:35:52;9.02;;;1.98;;
34499;SDS011;20745;50.882;6.962;2023-02-28T08:38:20;9.95;;;2.03;;
34499;SDS011;20745;50.882;6.962;2023-02-28T08:40:47;4.93;;;1.80;;
34499;SDS011;20745;50.882;6.962;2023-02-28T08:43:13;9.23;;;2.03;;
34499;SDS011;20745;50.882;6.962;2023-02-28T08:45:40;5.50;;;1.92;;
34499;SDS011;20745;50.882;6.962;2023-02-28T08:48:07;6.68;;;1.88;;
34499;SDS011;20745;50.882;6.962;2023-02-28T08:50:33;8.07;;;2.17;;
34499;SDS011;20745;50.882;6.962;2023-02-28T08:53:00;6.70;;;1.70;;
34499;SDS011;20745;50.882;6.962;2023-02-28T08:55:26;6.10;;;1.65;;
34499;SDS011;20745;50.882;6.962;2023-02-28T08:57:53;7.07;;;1.67;;
34499;SDS011;20745;50.882;6.962;2023-02-28T09:00:21;7.68;;;2.20;;
34499;SDS011;20745;50.882;6.962;2023-02-28T09:02:48;4.90;;;1.48;;
34499;SDS011;20745;50.882;6.962;2023-02-28T09:05:15;5.55;;;1.77;;
34499;SDS011;20745;50.882;6.962;2023-02-28T09:07:41;8.65;;;1.70;;
34499;SDS011;20745;50.882;6.962;2023-02-28T09:10:08;3.80;;;1.40;;
34499;SDS011;20745;50.882;6.962;2023-02-28T09:12:35;4.93;;;1.80;;
34499;SDS011;20745;50.882;6.962;2023-02-28T09:15:02;2.65;;;1.38;;
34499;SDS011;20745;50.882;6.962;2023-02-28T09:17:29;6.45;;;1.30;;
34499;SDS011;20745;50.882;6.962;2023-02-28T09:19:56;6.40;;;1.70;;
34499;SDS011;20745;50.882;6.962;2023-02-28T09:22:23;4.68;;;1.55;;
34499;SDS011;20745;50.882;6.962;2023-02-28T09:24:50;6.18;;;1.70;;
34499;SDS011;20745;50.882;6.962;2023-02-28T09:27:16;4.53;;;1.48;;
34499;SDS011;20745;50.882;6.962;2023-02-28T09:29:43;3.47;;;1.27;;
34499;SDS011;20745;50.882;6.962;2023-02-28T09:32:09;6.65;;;1.65;;
34499;SDS011;20745;50.882;6.962;2023-02-28T09:34:36;6.65;;;1.73;;
34499;SDS011;20745;50.882;6.962;2023-02-28T09:37:03;7.07;;;1.77;;
34499;SDS011;20745;50.882;6.962;2023-02-28T09:39:30;6.32;;;1.65;;
34499;SDS011;20745;50.882;6.962;2023-02-28T09:41:58;7.00;;;1.73;;
34499;SDS011;20745;50.882;6.962;2023-02-28T09:44:41;4.78;;;1.45;;
34499;SDS011;20745;50.882;6.962;2023-02-28T09:47:14;4.20;;;1.50;;
34499;SDS011;20745;50.882;6.962;2023-02-28T09:49:57;6.47;;;1.63;;
34499;SDS011;20745;50.882;6.962;2023-02-28T09:52:30;5.75;;;1.42;;
34499;SDS011;20745;50.882;6.962;2023-02-28T09:55:08;5.13;;;1.80;;
34499;SDS011;20745;50.882;6.962;2023-02-28T09:57:46;4.75;;;1.75;;
34499;SDS011;20745;50.882;6.962;2023-02-28T10:00:23;7.60;;;1.95;;
34499;SDS011;20745;50.882;6.962;2023-02-28T10:03:04;5.82;;;1.90;;
34499;SDS011;20745;50.882;6.962;2023-02-28T10:05:42;6.53;;;1.60;;
34499;SDS011;20745;50.882;6.962;2023-02-28T10:08:18;7.70;;;2.10;;
34499;SDS011;20745;50.882;6.962;2023-02-28T10:10:54;4.85;;;1.73;;
34499;SDS011;20745;50.882;6.962;2023-02-28T10:13:39;8.32;;;1.90;;
34499;SDS011;20745;50.882;6.962;2023-02-28T10:16:20;4.53;;;1.65;;
34499;SDS011;20745;50.882;6.962;2023-02-28T10:19:06;6.18;;;1.90;;
34499;SDS011;20745;50.882;6.962;2023-02-28T10:21:43;5.88;;;1.80;;
34499;SDS011;20745;50.882;6.962;2023-02-28T10:24:26;5.88;;;1.90;;
34499;SDS011;20745;50.882;6.962;2023-02-28T10:26:59;6.82;;;1.90;;
34499;SDS011;20745;50.882;6.962;2023-02-28T10:29:31;6.35;;;1.58;;
34499;SDS011;20745;50.882;6.962;2023-02-28T10:31:59;5.60;;;1.58;;
34499;SDS011;20745;50.882;6.962;2023-02-28T10:34:28;8.20;;;2.28;;
34499;SDS011;20745;50.882;6.962;2023-02-28T10:36:54;5.18;;;1.70;;
34499;SDS011;20745;50.882;6.962;2023-02-28T10:42:18;5.15;;;1.67;;
34499;SDS011;20745;50.882;6.962;2023-02-28T10:45:06;9.55;;;2.08;;
34499;SDS011;20745;50.882;6.962;2023-02-28T10:47:51;8.73;;;2.00;;
34499;SDS011;20745;50.882;6.962;2023-02-28T10:50:30;9.40;;;2.38;;
34499;SDS011;20745;50.882;6.962;2023-02-28T10:53:10;4.88;;;2.05;;
34499;SDS011;20745;50.882;6.962;2023-02-28T10:55:41;9.38;;;2.25;;
34499;SDS011;20745;50.882;6.962;2023-02-28T10:58:21;5.78;;;1.85;;
34499;SDS011;20745;50.882;6.962;2023-02-28T11:00:52;7.55;;;2.00;;
34499;SDS011;20745;50.882;6.962;2023-02-28T11:03:23;7.28;;;1.90;;
34499;SDS011;20745;50.882;6.962;2023-02-28T11:06:05;7.18;;;1.70;;
34499;SDS011;20745;50.882;6.962;2023-02-28T11:08:34;5.45;;;2.00;;
34499;SDS011;20745;50.882;6.962;2023-02-28T11:11:10;7.65;;;2.13;;
34499;SDS011;20745;50.882;6.962;2023-02-28T11:13:36;5.28;;;1.77;;
34499;SDS011;20745;50.882;6.962;2023-02-28T11:16:07;6.78;;;2.05;;
34499;SDS011;20745;50.882;6.962;2023-02-28T11:21:21;10.35;;;2.17;;
34499;SDS011;20745;50.882;6.962;2023-02-28T11:23:51;10.90;;;2.17;;
34499;SDS011;20745;50.882;6.962;2023-02-28T11:26:36;7.80;;;2.22;;
34499;SDS011;20745;50.882;6.962;2023-02-28T11:29:09;7.13;;;2.20;;
34499;SDS011;20745;50.882;6.962;2023-02-28T11:31:38;8.43;;;2.28;;
34499;SDS011;20745;50.882;6.962;2023-02-28T11:34:21;5.72;;;2.10;;
34499;SDS011;20745;50.882;6.962;2023-02-28T11:36:51;5.32;;;1.80;;
34499;SDS011;20745;50.882;6.962;2023-02-28T11:39:19;6.00;;;1.73;;
34499;SDS011;20745;50.882;6.962;2023-02-28T11:47:30;5.30;;;1.77;;
34499;SDS011;20745;50.882;6.962;2023-02-28T11:55:14;10.93;;;2.30;;
34499;SDS011;20745;50.882;6.962;2023-02-28T12:03:14;5.30;;;2.10;;
34499;SDS011;20745;50.882;6.962;2023-02-28T12:05:50;6.70;;;1.92;;
34499;SDS011;20745;50.882;6.962;2023-02-28T12:16:29;7.35;;;2.05;;
34499;SDS011;20745;50.882;6.962;2023-02-28T12:19:19;7.78;;;2.38;;
34499;SDS011;20745;50.882;6.962;2023-02-28T12:22:00;9.40;;;2.28;;
34499;SDS011;20745;50.882;6.962;2023-02-28T12:27:17;5.13;;;1.33;;
34499;SDS011;20745;50.882;6.962;2023-02-28T12:30:13;6.97;;;2.03;;
34499;SDS011;20745;50.882;6.962;2023-02-28T12:32:42;6.78;;;2.45;;
34499;SDS011;20745;50.882;6.962;2023-02-28T12:37:49;5.60;;;2.05;;
34499;SDS011;20745;50.882;6.962;2023-02-28T12:40:31;11.40;;;2.63;;
34499;SDS011;20745;50.882;6.962;2023-02-28T12:43:09;6.45;;;2.20;;
34499;SDS011;20745;50.882;6.962;2023-02-28T12:45:44;8.73;;;3.10;;
34499;SDS011;20745;50.882;6.962;2023-02-28T12:48:21;8.93;;;2.17;;
34499;SDS011;20745;50.882;6.962;2023-02-28T12:50:55;6.88;;;2.22;;
34499;SDS011;20745;50.882;6.962;2023-02-28T12:53:28;8.50;;;2.50;;
34499;SDS011;20745;50.882;6.962;2023-02-28T12:56:09;9.52;;;2.53;;
34499;SDS011;20745;50.882;6.962;2023-02-28T12:58:58;6.82;;;2.53;;
34499;SDS011;20745;50.882;6.962;2023-02-28T13:04:33;10.40;;;2.42;;
34499;SDS011;20745;50.882;6.962;2023-02-28T13:10:16;6.60;;;2.17;;
34499;SDS011;20745;50.882;6.962;2023-02-28T13:12:51;6.78;;;2.45;;
34499;SDS011;20745;50.882;6.962;2023-02-28T13:18:00;9.07;;;2.67;;
34499;SDS011;20745;50.882;6.962;2023-02-28T13:20:29;8.75;;;2.60;;
34499;SDS011;20745;50.882;6.962;2023-02-28T13:23:01;6.68;;;2.30;;
34499;SDS011;20745;50.882;6.962;2023-02-28T13:31:14;6.47;;;2.72;;
34499;SDS011;20745;50.882;6.962;2023-02-28T13:36:22;7.72;;;2.47;;
34499;SDS011;20745;50.882;6.962;2023-02-28T13:38:55;7.22;;;2.40;;
34499;SDS011;20745;50.882;6.962;2023-02-28T13:46:32;8.13;;;2.70;;
34499;SDS011;20745;50.882;6.962;2023-02-28T13:49:18;9.65;;;3.08;;
34499;SDS011;20745;50.882;6.962;2023-02-28T13:51:52;9.38;;;2.50;;
34499;SDS011;20745;50.882;6.962;2023-02-28T13:57:10;9.60;;;2.60;;
34499;SDS011;20745;50.882;6.962;2023-02-28T14:03:00;9.00;;;2.80;;
34499;SDS011;20745;50.882;6.962;2023-02-28T14:09:02;7.25;;;2.33;;
34499;SDS011;20745;50.882;6.962;2023-02-28T14:11:36;7.20;;;2.60;;
34499;SDS011;20745;50.882;6.962;2023-02-28T14:14:06;11.05;;;2.90;;
34499;SDS011;20745;50.882;6.962;2023-02-28T14:16:40;9.65;;;2.63;;
34499;SDS011;20745;50.882;6.962;2023-02-28T14:19:12;9.70;;;2.92;;
34499;SDS011;20745;50.882;6.962;2023-02-28T14:30:40;8.50;;;3.00;;
34499;SDS011;20745;50.882;6.962;2023-02-28T14:36:08;9.13;;;2.90;;
34499;SDS011;20745;50.882;6.962;2023-02-28T14:38:42;6.95;;;2.50;;
34499;SDS011;20745;50.882;6.962;2023-02-28T14:41:14;8.88;;;2.83;;
34499;SDS011;20745;50.882;6.962;2023-02-28T14:43:49;8.45;;;2.97;;
34499;SDS011;20745;50.882;6.962;2023-02-28T14:46:18;6.68;;;2.42;;
34499;SDS011;20745;50.882;6.962;2023-02-28T14:48:46;7.40;;;2.45;;
34499;SDS011;20745;50.882;6.962;2023-02-28T14:51:19;10.55;;;3.53;;
34499;SDS011;20745;50.882;6.962;2023-02-28T14:53:49;10.32;;;2.90;;
34499;SDS011;20745;50.882;6.962;2023-02-28T14:56:23;10.88;;;3.03;;
34499;SDS011;20745;50.882;6.962;2023-02-28T14:58:54;11.18;;;3.22;;
34499;SDS011;20745;50.882;6.962;2023-02-28T15:01:23;7.82;;;3.15;;
34499;SDS011;20745;50.882;6.962;2023-02-28T15:04:02;11.25;;;3.38;;
34499;SDS011;20745;50.882;6.962;2023-02-28T15:06:30;7.75;;;2.67;;
34499;SDS011;20745;50.882;6.962;2023-02-28T15:09:16;10.20;;;3.17;;
34499;SDS011;20745;50.882;6.962;2023-02-28T15:11:45;8.18;;;2.78;;
34499;SDS011;20745;50.882;6.962;2023-02-28T15:14:15;9.00;;;3.00;;
34499;SDS011;20745;50.882;6.962;2023-02-28T15:16:46;10.80;;;3.00;;
34499;SDS011;20745;50.882;6.962;2023-02-28T15:19:29;8.45;;;2.72;;
34499;SDS011;20745;50.882;6.962;2023-02-28T15:22:06;9.05;;;2.75;;
34499;SDS011;20745;50.882;6.962;2023-02-28T15:27:12;9.70;;;3.25;;
34499;SDS011;20745;50.882;6.962;2023-02-28T15:29:48;9.43;;;3.03;;
34499;SDS011;20745;50.882;6.962;2023-02-28T15:32:21;10.20;;;3.22;;
34499;SDS011;20745;50.882;6.962;2023-02-28T15:34:49;9.80;;;2.78;;
34499;SDS011;20745;50.882;6.962;2023-02-28T15:37:29;9.68;;;2.95;;
34499;SDS011;20745;50.882;6.962;2023-02-28T15:45:35;13.38;;;3.47;;
34499;SDS011;20745;50.882;6.962;2023-02-28T15:48:13;9.25;;;3.20;;
34499;SDS011;20745;50.882;6.962;2023-02-28T15:50:52;7.65;;;2.88;;
34499;SDS011;20745;50.882;6.962;2023-02-28T15:53:23;10.55;;;3.25;;
34499;SDS011;20745;50.882;6.962;2023-02-28T15:55:55;10.52;;;3.30;;
34499;SDS011;20745;50.882;6.962;2023-02-28T15:58:26;10.23;;;3.17;;
34499;SDS011;20745;50.882;6.962;2023-02-28T16:01:00;11.38;;;3.25;;
34499;SDS011;20745;50.882;6.962;2023-02-28T16:06:25;8.50;;;3.10;;
34499;SDS011;20745;50.882;6.962;2023-02-28T16:08:52;9.18;;;3.00;;
34499;SDS011;20745;50.882;6.962;2023-02-28T16:11:20;11.82;;;3.28;;
34499;SDS011;20745;50.882;6.962;2023-02-28T16:13:48;9.68;;;3.30;;
34499;SDS011;20745;50.882;6.962;2023-02-28T16:16:20;9.32;;;2.88;;
34499;SDS011;20745;50.882;6.962;2023-02-28T16:18:48;9.98;;;3.08;;
34499;SDS011;20745;50.882;6.962;2023-02-28T16:21:16;8.88;;;3.00;;
34499;SDS011;20745;50.882;6.962;2023-02-28T16:23:42;11.60;;;3.30;;
34499;SDS011;20745;50.882;6.962;2023-02-28T16:26:12;9.10;;;3.08;;
34499;SDS011;20745;50.882;6.962;2023-02-28T16:28:45;9.30;;;2.75;;
34499;SDS011;20745;50.882;6.962;2023-02-28T16:31:12;8.43;;;2.70;;
34499;SDS011;20745;50.882;6.962;2023-02-28T16:33:43;9.38;;;2.70;;
34499;SDS011;20745;50.882;6.962;2023-02-28T16:36:18;9.57;;;2.83;;
34499;SDS011;20745;50.882;6.962;2023-02-28T16:38:46;11.07;;;3.13;;
34499;SDS011;20745;50.882;6.962;2023-02-28T16:41:14;7.25;;;2.70;;
34499;SDS011;20745;50.882;6.962;2023-02-28T16:43:45;10.55;;;3.30;;
34499;SDS011;20745;50.882;6.962;2023-02-28T16:46:14;12.07;;;3.22;;
34499;SDS011;20745;50.882;6.962;2023-02-28T16:48:43;13.38;;;3.58;;
34499;SDS011;20745;50.882;6.962;2023-02-28T16:51:11;10.53;;;3.20;;
34499;SDS011;20745;50.882;6.962;2023-02-28T16:53:39;11.82;;;3.47;;
34499;SDS011;20745;50.882;6.962;2023-02-28T16:56:06;10.85;;;3.20;;
34499;SDS011;20745;50.882;6.962;2023-02-28T16:58:39;7.53;;;2.70;;
34499;SDS011;20745;50.882;6.962;2023-02-28T17:01:06;9.63;;;3.10;;
34499;SDS011;20745;50.882;6.962;2023-02-28T17:03:32;10.20;;;2.95;;
34499;SDS011;20745;50.882;6.962;2023-02-28T17:06:00;10.32;;;2.90;;
34499;SDS011;20745;50.882;6.962;2023-02-28T17:08:26;11.65;;;3.17;;
34499;SDS011;20745;50.882;6.962;2023-02-28T17:10:55;10.38;;;2.78;;
34499;SDS011;20745;50.882;6.962;2023-02-28T17:13:22;14.02;;;3.05;;